Time;durP1;ratioP1;P1;durP2;ratioP2;P2;SDS_P1;SDS_P2;PMS_P1;PMS_P2;Temp;Humidity;BMP_temperature;BMP_pressure;BME280_temperature;BME280_humidity;BME280_pressure;Samples;Min_cycle;Max_cycle;Signal;HPM_P1;HPM_P2
2022/04/12 00:00:32;;;;;;;6.83;2.00;;;;;;;1.66;64.17;101397.97;5111718;28;20119;-68
2022/04/12 00:02:57;;;;;;;5.80;2.37;;;;;;;1.62;64.49;101390.34;5111691;28;20027;-66
2022/04/12 00:05:24;;;;;;;3.97;1.73;;;;;;;1.52;64.71;101390.91;5111807;28;20588;-68
2022/04/12 00:07:49;;;;;;;3.27;1.73;;;;;;;1.47;64.98;101387.69;5111957;28;20040;-68
2022/04/12 00:10:16;;;;;;;2.77;1.40;;;;;;;1.46;65.43;101396.50;5112050;28;20270;-69
2022/04/12 00:12:43;;;;;;;4.77;2.17;;;;;;;1.44;65.54;101387.84;5111509;28;20102;-68
2022/04/12 00:15:10;;;;;;;2.40;1.73;;;;;;;1.45;65.59;101404.47;5111722;28;20270;-68
2022/04/12 00:20:53;;;;;;;3.30;1.50;;;;;;;1.46;65.13;101399.13;5115441;28;20279;-70
2022/04/12 00:23:19;;;;;;;2.67;1.70;;;;;;;1.47;65.54;101403.47;5115672;28;20269;-69
2022/04/12 00:25:44;;;;;;;5.53;2.10;;;;;;;1.43;65.67;101401.06;5117133;28;20314;-67
2022/04/12 00:28:11;;;;;;;4.57;1.70;;;;;;;1.32;65.76;101395.59;5115375;28;20479;-68
2022/04/12 00:30:37;;;;;;;6.60;1.93;;;;;;;1.43;65.59;101414.19;5115464;28;20301;-65
2022/04/12 00:33:15;;;;;;;15.63;2.70;;;;;;;1.43;65.07;101409.78;5115951;28;20814;-67
2022/04/12 00:35:43;;;;;;;5.47;1.50;;;;;;;1.41;65.28;101409.03;5095691;28;20131;-68
2022/04/12 00:38:18;;;;;;;7.85;1.60;;;;;;;1.39;65.58;101410.91;5114522;28;20112;-66
2022/04/12 00:40:50;;;;;;;2.03;1.50;;;;;;;1.33;65.73;101406.00;5116866;28;20122;-67
2022/04/12 00:43:17;;;;;;;3.00;1.77;;;;;;;1.27;66.01;101413.41;5115824;28;20289;-68
2022/04/12 00:45:44;;;;;;;4.07;3.13;;;;;;;1.22;66.53;101414.50;5098003;28;20714;-65
2022/04/12 00:48:13;;;;;;;2.40;1.77;;;;;;;1.21;66.71;101414.59;5115653;28;20760;-68
2022/04/12 00:50:40;;;;;;;5.40;2.00;;;;;;;1.17;66.71;101418.31;5115647;28;20269;-68
2022/04/12 00:53:10;;;;;;;7.63;2.00;;;;;;;1.15;66.65;101420.16;5115107;28;20331;-68
2022/04/12 00:55:41;;;;;;;5.27;1.70;;;;;;;1.10;66.87;101416.94;5115805;28;20272;-68
2022/04/12 00:58:08;;;;;;;4.13;1.80;;;;;;;1.13;66.74;101425.50;5115252;28;20310;-67
2022/04/12 01:00:35;;;;;;;5.43;1.70;;;;;;;1.10;67.00;101414.31;5115045;28;20269;-68
2022/04/12 01:03:04;;;;;;;2.70;1.80;;;;;;;1.14;66.47;101426.34;5115468;28;20261;-69
2022/04/12 01:05:30;;;;;;;2.88;2.03;;;;;;;1.11;66.57;101422.13;5114538;28;20273;-67
2022/04/12 01:07:56;;;;;;;1.80;1.67;;;;;;;1.10;67.35;101430.06;5114689;28;20039;-66
2022/04/12 01:10:25;;;;;;;4.50;1.77;;;;;;;1.03;66.90;101423.47;5115318;28;20333;-67
2022/04/12 01:12:55;;;;;;;2.75;1.80;;;;;;;1.09;67.23;101441.50;5114479;28;20316;-66
2022/04/12 01:15:26;;;;;;;5.63;2.00;;;;;;;1.06;67.15;101442.50;5114234;28;20040;-68
2022/04/12 01:17:52;;;;;;;3.93;1.97;;;;;;;1.01;67.59;101441.94;5114409;28;20322;-67
2022/04/12 01:20:19;;;;;;;4.53;1.80;;;;;;;1.03;67.65;101454.97;5114486;28;20116;-67
2022/04/12 01:23:14;;;;;;;3.43;2.30;;;;;;;1.03;67.87;101454.97;5114578;28;20257;-66
2022/04/12 01:25:40;;;;;;;4.93;2.37;;;;;;;0.98;67.66;101464.84;5114437;28;20771;-67
2022/04/12 01:28:11;;;;;;;5.63;2.07;;;;;;;0.91;68.00;101444.22;5114014;28;20273;-68
2022/04/12 01:30:37;;;;;;;3.93;1.80;;;;;;;0.95;68.10;101457.16;5114283;28;20756;-69
2022/04/12 01:33:04;;;;;;;6.00;1.40;;;;;;;0.85;68.33;101452.41;5114141;28;20304;-68
2022/04/12 01:35:30;;;;;;;5.37;1.93;;;;;;;0.90;68.55;101471.38;5114138;28;20542;-68
2022/04/12 01:37:56;;;;;;;4.97;1.67;;;;;;;0.89;68.65;101469.69;5114003;28;20621;-67
2022/04/12 01:40:21;;;;;;;3.70;2.37;;;;;;;0.88;68.90;101473.25;5095775;28;20108;-66
2022/04/12 01:42:47;;;;;;;4.97;1.67;;;;;;;0.84;69.18;101476.94;5113777;28;20036;-67
2022/04/12 01:45:13;;;;;;;3.37;1.90;;;;;;;0.80;69.11;101474.56;5113685;28;20050;-65
2022/04/12 01:47:38;;;;;;;4.13;2.30;;;;;;;0.81;68.59;101476.25;5113895;28;20028;-64
2022/04/12 01:50:05;;;;;;;7.70;2.50;;;;;;;0.78;68.92;101474.66;5095641;28;20042;-64
2022/04/12 01:52:30;;;;;;;6.07;2.20;;;;;;;0.79;69.04;101473.72;5113762;28;20100;-66
2022/04/12 01:54:56;;;;;;;5.20;2.20;;;;;;;0.83;69.41;101485.72;5113963;28;20799;-65
2022/04/12 01:57:21;;;;;;;4.17;2.20;;;;;;;0.79;69.54;101473.72;5113603;28;20111;-65
2022/04/12 01:59:47;;;;;;;3.37;2.00;;;;;;;0.79;69.20;101488.59;5113919;28;20049;-65
2022/04/12 02:02:12;;;;;;;3.70;1.80;;;;;;;0.74;69.58;101480.97;5113570;28;20043;-65
2022/04/12 02:04:38;;;;;;;5.37;2.10;;;;;;;0.76;69.88;101494.84;5113621;28;20442;-65
2022/04/12 02:07:03;;;;;;;3.10;1.70;;;;;;;0.71;70.40;101485.56;5113666;28;20034;-65
2022/04/12 02:09:29;;;;;;;4.47;2.03;;;;;;;0.70;70.33;101487.31;5113414;28;20557;-65
2022/04/12 02:11:55;;;;;;;3.10;1.67;;;;;;;0.68;70.17;101491.81;5113313;28;20375;-65
2022/04/12 02:14:24;;;;;;;4.87;2.53;;;;;;;0.64;70.49;101485.03;5094872;28;20428;-65
2022/04/12 02:16:50;;;;;;;;;;;;;;;0.72;69.83;101495.94;5113806;28;20278;-65
2022/04/12 02:19:15;;;;;;;8.00;3.23;;;;;;;0.70;70.58;101499.59;5113305;28;20294;-65
2022/04/12 02:21:41;;;;;;;5.40;2.20;;;;;;;0.64;70.50;101503.38;5113127;28;20038;-66
2022/04/12 02:24:07;;;;;;;7.07;3.17;;;;;;;0.58;71.23;101506.34;5095162;28;20435;-65
2022/04/12 02:26:32;;;;;;;5.33;2.00;;;;;;;0.58;70.90;101503.72;5113250;28;20036;-64
2022/04/12 02:28:58;;;;;;;3.60;2.00;;;;;;;0.57;71.12;101512.47;5112670;28;20153;-66
2022/04/12 02:31:24;;;;;;;7.90;3.23;;;;;;;0.52;71.09;101507.47;5112949;28;20134;-65
2022/04/12 02:33:49;;;;;;;4.67;2.60;;;;;;;0.57;71.83;101517.72;5113048;28;20050;-65
2022/04/12 02:36:15;;;;;;;3.37;2.33;;;;;;;0.56;71.59;101514.25;5112836;28;20130;-64
2022/04/12 02:38:40;;;;;;;7.17;2.27;;;;;;;0.57;71.79;101517.72;5112891;28;20031;-66
2022/04/12 02:41:06;;;;;;;4.53;2.57;;;;;;;0.57;72.07;101521.19;5112955;28;20035;-66
2022/04/12 02:43:31;;;;;;;7.80;2.57;;;;;;;0.56;71.66;101516.88;5112357;28;20042;-65
2022/04/12 02:45:58;;;;;;;7.33;2.50;;;;;;;0.55;72.09;101520.41;5113056;28;20054;-65
2022/04/12 02:48:24;;;;;;;7.80;2.87;;;;;;;0.52;72.27;101512.72;5112747;28;20042;-67
2022/04/12 02:50:50;;;;;;;4.30;2.03;;;;;;;0.47;72.47;101519.13;5112639;28;20261;-64
2022/04/12 02:53:15;;;;;;;8.03;2.87;;;;;;;0.44;72.55;101524.53;5112411;28;20130;-67
2022/04/12 02:55:41;;;;;;;7.13;2.97;;;;;;;0.40;73.01;101499.41;5112379;28;20509;-64
2022/04/12 02:58:07;;;;;;;4.40;2.67;;;;;;;0.47;73.39;101511.28;5112767;28;20038;-66
2022/04/12 03:00:34;;;;;;;6.67;2.73;;;;;;;0.14;73.33;101464.94;5112760;28;20470;-65
2022/04/12 03:03:00;;;;;;;5.90;2.50;;;;;;;0.47;73.56;101519.13;5112696;28;20058;-65
2022/04/12 03:05:25;;;;;;;4.97;2.60;;;;;;;0.50;73.81;101518.97;5112658;28;20624;-66
2022/04/12 03:07:51;;;;;;;4.10;2.70;;;;;;;0.53;73.58;101518.81;5112412;28;20071;-65
2022/04/12 03:10:49;;;;;;;4.57;2.97;;;;;;;0.56;74.09;101523.88;5112723;28;20535;-65
2022/04/12 03:13:28;;;;;;;4.43;2.58;;;;;;;0.60;74.01;101522.81;5072137;28;20051;-65
2022/04/12 03:15:55;;;;;;;;;;;;;;;0.65;73.50;101526.06;5127128;28;20050;-66
2022/04/12 03:18:21;;;;;;;9.37;3.20;;;;;;;0.64;74.21;101526.97;5133286;28;19926;-66
2022/04/12 03:21:12;;;;;;;8.53;4.10;;;;;;;0.59;74.27;101531.63;5133604;28;20791;-66
2022/04/12 03:23:37;;;;;;;7.53;3.23;;;;;;;0.55;74.26;101530.91;5133416;28;20293;-65
2022/04/12 03:26:04;;;;;;;7.27;2.87;;;;;;;0.60;74.84;101541.19;5133424;28;20039;-66
2022/04/12 03:28:29;;;;;;;4.67;2.70;;;;;;;0.52;74.63;101538.94;5133584;28;20035;-65
2022/04/12 03:30:57;;;;;;;7.87;2.80;;;;;;;0.58;75.12;101540.41;5133420;28;20756;-64
2022/04/12 03:33:23;;;;;;;6.72;3.03;;;;;;;0.58;75.03;101543.88;5132437;28;20451;-66
2022/04/12 03:35:49;;;;;;;8.80;2.30;;;;;;;0.50;75.00;101538.16;5133050;28;20035;-65
2022/04/12 03:38:16;;;;;;;8.37;2.67;;;;;;;0.56;75.14;101544.84;5132966;28;20490;-66
2022/04/12 03:40:46;;;;;;;7.17;2.80;;;;;;;0.68;75.24;101559.97;5132990;28;20039;-66
2022/04/12 03:43:12;;;;;;;5.67;3.03;;;;;;;0.74;75.04;101564.88;5133288;28;20359;-64
2022/04/12 03:45:38;;;;;;;4.60;2.33;;;;;;;0.81;74.95;101563.63;5133027;28;20348;-65
2022/04/12 03:48:07;;;;;;;4.07;2.60;;;;;;;0.86;74.42;101563.38;5133250;28;20042;-65
2022/04/12 03:50:34;;;;;;;5.40;3.28;;;;;;;0.86;74.66;101553.75;5133152;28;20031;-67
2022/04/12 03:53:01;;;;;;;5.80;2.70;;;;;;;1.05;74.83;101563.25;5133082;28;20035;-65
2022/04/12 03:55:35;;;;;;;22.27;5.63;;;;;;;1.06;74.32;101550.06;5131133;27;20271;-65
2022/04/12 03:58:05;;;;;;;6.57;3.50;;;;;;;1.13;74.46;101555.81;5116951;27;20786;-65
2022/04/12 04:00:32;;;;;;;7.77;3.40;;;;;;;1.15;74.85;101556.59;5116248;28;20346;-65
2022/04/12 04:02:57;;;;;;;14.37;3.50;;;;;;;1.14;74.43;101549.63;5116467;28;20284;-64
2022/04/12 04:05:24;;;;;;;8.23;2.93;;;;;;;1.12;74.93;101544.47;5116537;28;20269;-67
2022/04/12 04:07:50;;;;;;;8.57;3.97;;;;;;;1.23;74.71;101559.66;5116415;28;20107;-67
2022/04/12 04:10:16;;;;;;;9.27;3.50;;;;;;;1.29;75.02;101566.34;5117336;28;20360;-72
2022/04/12 04:12:42;;;;;;;4.87;3.70;;;;;;;1.34;74.87;101570.41;5119110;28;20043;-75
2022/04/12 04:15:14;;;;;;;7.97;3.60;;;;;;;1.37;74.58;101575.50;5117056;28;20285;-75
2022/04/12 04:17:45;;;;;;;12.97;5.70;;;;;;;1.40;75.12;101580.56;5116836;28;20285;-71
2022/04/12 04:20:15;;;;;;;13.60;4.60;;;;;;;1.45;74.67;101581.19;5116734;28;20287;-70
2022/04/12 04:22:45;;;;;;;8.03;3.47;;;;;;;1.48;74.79;101583.63;5116225;28;20297;-72
2022/04/12 04:25:11;;;;;;;;;;;;;;;1.58;74.05;101583.13;5116362;28;20364;-68
2022/04/12 04:27:39;;;;;;;7.57;3.93;;;;;;;1.54;74.51;101592.94;5119334;28;19939;-76
2022/04/12 04:30:07;;;;;;;11.70;3.97;;;;;;;1.44;75.38;101587.34;5116529;28;20344;-68
2022/04/12 04:32:34;;;;;;;8.63;3.63;;;;;;;1.41;75.55;101587.50;5097409;28;20143;-71
2022/04/12 04:35:00;;;;;;;6.47;4.13;;;;;;;1.45;75.58;101588.22;5115985;28;20027;-72
2022/04/12 04:37:27;;;;;;;9.73;4.23;;;;;;;1.60;75.26;101600.47;5115384;28;20740;-69
2022/04/12 04:39:55;;;;;;;9.37;3.23;;;;;;;1.69;75.01;101607.84;5117166;28;20262;-69
2022/04/12 04:42:23;;;;;;;;;;;;;;;1.81;74.74;101606.34;5099467;28;20269;-70
2022/04/12 04:44:49;;;;;;;7.93;3.17;;;;;;;1.75;74.54;101599.66;5115666;28;19915;-70
2022/04/12 04:47:15;;;;;;;10.80;3.60;;;;;;;1.81;73.98;101593.19;5097200;28;20778;-69
2022/04/12 04:49:41;;;;;;;8.63;4.97;;;;;;;1.88;74.31;101607.69;5118742;28;20297;-70
2022/04/12 04:52:07;;;;;;;13.33;3.73;;;;;;;1.92;74.25;101619.69;5115727;28;20307;-67
2022/04/12 04:54:33;;;;;;;8.93;3.33;;;;;;;1.94;74.50;101606.47;5114816;28;20124;-70
2022/04/12 04:57:02;;;;;;;7.57;3.40;;;;;;;2.00;74.47;101620.09;5115108;28;20046;-69
2022/04/12 04:59:44;;;;;;;9.90;3.73;;;;;;;2.06;74.11;101621.56;5112756;28;20036;-70
2022/04/12 05:02:10;;;;;;;10.33;3.73;;;;;;;2.05;73.77;101620.72;5095979;28;20834;-71
2022/04/12 05:04:36;;;;;;;14.13;3.40;;;;;;;2.16;73.74;101631.44;5114113;28;20550;-70
2022/04/12 05:07:10;;;;;;;4.77;3.43;;;;;;;2.04;73.31;101592.75;5113465;28;20503;-71
2022/04/12 05:09:37;;;;;;;8.33;3.90;;;;;;;2.40;73.25;101644.97;5113482;28;20027;-70
2022/04/12 05:12:03;;;;;;;11.53;4.10;;;;;;;2.46;72.92;101644.63;5097622;28;20261;-69
2022/04/12 05:14:38;;;;;;;15.23;4.53;;;;;;;2.54;72.88;101638.91;5114359;28;20811;-69
2022/04/12 05:17:07;;;;;;;13.43;4.13;;;;;;;2.64;72.07;101644.50;5096789;28;20278;-70
2022/04/12 05:19:36;;;;;;;8.77;3.73;;;;;;;2.68;72.23;101646.84;5114661;28;20366;-68
2022/04/12 05:22:02;;;;;;;15.53;4.00;;;;;;;2.70;71.96;101637.06;5114420;28;20351;-71
2022/04/12 05:24:53;;;;;;;12.57;4.33;;;;;;;2.84;71.64;101648.56;5114814;28;20366;-68
2022/04/12 05:27:19;;;;;;;10.60;3.90;;;;;;;2.81;71.70;101657.47;5115377;28;20270;-68
2022/04/12 05:29:45;;;;;;;9.37;3.93;;;;;;;2.81;71.40;101657.47;5116734;27;20291;-70
2022/04/12 05:32:13;;;;;;;12.23;3.80;;;;;;;2.82;71.53;101669.69;5124358;27;20772;-72
2022/04/12 05:34:43;;;;;;;12.57;5.67;;;;;;;2.82;72.21;101674.09;5123411;27;20042;-69
2022/04/12 05:37:09;;;;;;;16.80;3.77;;;;;;;2.84;71.61;101673.06;5124231;27;20307;-62
2022/04/12 05:39:34;;;;;;;12.77;4.00;;;;;;;2.74;71.72;101643.00;5125743;27;20827;-61
2022/04/12 05:42:01;;;;;;;12.00;4.67;;;;;;;3.05;71.50;101678.84;5123285;27;20273;-62
2022/04/12 05:44:28;;;;;;;15.03;4.73;;;;;;;3.14;70.83;101680.94;5126056;27;20032;-61
2022/04/12 05:46:54;;;;;;;17.97;4.60;;;;;;;3.23;70.34;101683.03;5124720;27;20276;-62
2022/04/12 05:49:19;;;;;;;13.47;4.03;;;;;;;3.24;70.37;101673.34;5122889;27;20304;-62
2022/04/12 05:51:45;;;;;;;16.13;4.97;;;;;;;3.33;70.56;101681.50;5128652;27;20344;-62
2022/04/12 05:54:14;;;;;;;17.93;5.20;;;;;;;3.44;69.87;101694.00;5125682;27;20035;-65
2022/04/12 05:56:40;;;;;;;21.63;5.63;;;;;;;3.50;69.84;101687.53;5134482;27;20179;-62
2022/04/12 05:59:06;;;;;;;23.30;4.80;;;;;;;3.60;69.10;101701.84;5134395;27;20351;-62
2022/04/12 06:01:32;;;;;;;27.30;6.20;;;;;;;3.64;69.53;101700.69;5116220;27;20114;-62
2022/04/12 06:03:58;;;;;;;20.27;5.47;;;;;;;3.71;69.29;101699.38;5134593;27;20035;-60
2022/04/12 06:06:23;;;;;;;21.73;4.97;;;;;;;3.81;68.91;101703.13;5134619;27;20515;-60
2022/04/12 06:08:49;;;;;;;15.63;4.93;;;;;;;3.94;68.23;101711.09;5134317;27;20414;-65
2022/04/12 06:11:14;;;;;;;30.27;5.40;;;;;;;3.93;68.29;101699.72;5134116;27;20116;-61
2022/04/12 06:13:40;;;;;;;13.37;4.87;;;;;;;4.00;68.31;101708.06;5131985;27;20100;-62
2022/04/12 06:16:05;;;;;;;18.37;4.90;;;;;;;4.04;67.90;101714.84;5122100;27;20498;-64
2022/04/12 06:18:31;;;;;;;27.10;4.83;;;;;;;4.09;68.18;101723.34;5113821;28;20360;-63
2022/04/12 06:20:56;;;;;;;13.70;6.10;;;;;;;4.23;67.95;101723.28;5113112;28;20479;-63
2022/04/12 06:23:22;;;;;;;28.23;5.90;;;;;;;4.29;67.26;101722.03;5111991;28;20031;-64
2022/04/12 06:26:12;;;;;;;14.87;4.60;;;;;;;4.29;67.14;101725.53;5112398;28;20054;-63
2022/04/12 06:28:38;;;;;;;18.60;5.83;;;;;;;4.30;67.43;101721.94;5112989;28;20269;-63
2022/04/12 06:31:03;;;;;;;24.37;5.30;;;;;;;4.33;67.25;101720.88;5113370;28;20027;-61
2022/04/12 06:33:29;;;;;;;20.43;5.13;;;;;;;4.39;67.24;101736.34;5112997;28;20046;-62
2022/04/12 06:35:56;;;;;;;14.57;6.50;;;;;;;4.34;66.96;101725.25;5113491;28;20027;-61
2022/04/12 06:38:21;;;;;;;16.27;5.30;;;;;;;4.33;66.74;101726.16;5095148;28;20050;-64
2022/04/12 06:40:49;;;;;;;18.10;4.93;;;;;;;4.33;66.75;101710.34;5112835;28;20764;-62
2022/04/12 06:43:15;;;;;;;22.97;5.47;;;;;;;4.57;66.47;101732.50;5112799;28;20039;-63
2022/04/12 06:45:41;;;;;;;18.53;5.07;;;;;;;4.70;65.89;101745.75;5112842;28;20265;-64
2022/04/12 06:48:07;;;;;;;21.03;4.87;;;;;;;4.74;65.74;101741.94;5113951;28;20276;-63
2022/04/12 06:50:34;;;;;;;18.60;5.03;;;;;;;4.70;65.73;101750.19;5113945;28;20035;-63
2022/04/12 06:53:00;;;;;;;19.37;5.70;;;;;;;4.60;65.71;101753.41;5112806;28;20300;-64
2022/04/12 06:55:27;;;;;;;22.03;5.90;;;;;;;4.63;65.13;101745.31;5112117;28;20594;-63
2022/04/12 06:57:53;;;;;;;18.93;5.00;;;;;;;4.64;65.71;101752.28;5112857;28;20744;-66
2022/04/12 07:00:19;;;;;;;19.87;5.50;;;;;;;4.71;65.81;101763.28;5112799;28;20318;-62
2022/04/12 07:02:46;;;;;;;12.20;4.60;;;;;;;4.79;65.46;101754.84;5112663;28;20030;-65
2022/04/12 07:05:12;;;;;;;25.33;5.07;;;;;;;4.87;65.04;101760.44;5112157;28;20617;-63
2022/04/12 07:07:38;;;;;;;22.07;4.40;;;;;;;4.89;64.91;101753.28;5111819;28;20306;-62
2022/04/12 07:10:06;;;;;;;19.97;5.00;;;;;;;5.01;64.83;101759.56;5111970;28;20046;-63
2022/04/12 07:12:31;;;;;;;13.00;3.83;;;;;;;5.12;64.71;101768.44;5112626;28;20288;-62
2022/04/12 07:14:58;;;;;;;16.73;3.77;;;;;;;5.19;64.14;101756.50;5112329;28;20667;-63
2022/04/12 07:17:23;;;;;;;14.80;4.17;;;;;;;5.28;64.04;101736.56;5112240;28;20051;-62
2022/04/12 07:19:49;;;;;;;16.20;4.50;;;;;;;5.45;62.82;101748.59;5112222;28;20866;-64
2022/04/12 07:22:15;;;;;;;34.10;5.07;;;;;;;5.53;62.03;101751.59;5112418;28;20513;-63
2022/04/12 07:24:40;;;;;;;21.13;4.67;;;;;;;5.69;61.64;101761.91;5111984;28;20035;-63
2022/04/12 07:27:06;;;;;;;13.73;3.70;;;;;;;5.70;61.05;101761.81;5112208;28;20539;-62
2022/04/12 07:29:32;;;;;;;20.70;3.80;;;;;;;5.65;61.07;101750.72;5114149;28;20035;-62
2022/04/12 07:31:57;;;;;;;22.07;4.23;;;;;;;5.76;61.38;101758.72;5117485;28;20042;-63
2022/04/12 07:34:23;;;;;;;33.87;6.27;;;;;;;5.73;60.87;101739.59;5117721;28;20047;-63
2022/04/12 07:36:53;;;;;;;25.50;6.30;;;;;;;6.03;59.94;101760.44;5117216;28;20040;-63
2022/04/12 07:39:20;;;;;;;63.80;8.27;;;;;;;6.10;59.11;101751.13;5117130;28;20028;-64
2022/04/12 07:41:47;;;;;;;27.67;4.60;;;;;;;6.32;58.78;101767.13;5116290;28;20269;-63
2022/04/12 07:44:13;;;;;;;20.73;4.40;;;;;;;6.27;57.46;101750.75;5116629;28;20265;-64
2022/04/12 07:46:39;;;;;;;13.47;3.30;;;;;;;6.38;56.86;101763.22;5116019;28;20257;-62
2022/04/12 07:49:04;;;;;;;22.33;4.50;;;;;;;6.39;55.63;101752.53;5115717;28;20265;-64
2022/04/12 07:51:30;;;;;;;28.23;5.57;;;;;;;6.53;55.20;101762.94;5115672;28;20409;-62
2022/04/12 07:53:56;;;;;;;18.10;3.73;;;;;;;6.63;54.71;101762.25;5115669;28;20506;-63
2022/04/12 07:56:21;;;;;;;9.00;2.70;;;;;;;6.69;54.12;101773.25;5115911;28;20073;-64
2022/04/12 07:58:47;;;;;;;13.90;4.00;;;;;;;6.66;53.86;101767.34;5116186;28;20084;-66
2022/04/12 08:01:12;;;;;;;10.37;2.77;;;;;;;6.50;53.27;101752.56;5115704;28;20477;-63
2022/04/12 08:03:40;;;;;;;12.37;3.20;;;;;;;6.58;53.17;101769.69;5116450;27;20941;-64
2022/04/12 08:06:06;;;;;;;6.87;2.60;;;;;;;6.68;52.81;101765.44;5115739;27;20104;-60
2022/04/12 08:08:35;;;;;;;14.97;2.70;;;;;;;6.83;52.28;101769.56;5115869;28;20337;-64
2022/04/12 08:11:01;;;;;;;11.10;2.63;;;;;;;6.82;52.09;101765.22;5115654;27;20269;-63
2022/04/12 08:13:27;;;;;;;8.40;2.37;;;;;;;6.88;51.57;101771.88;5118506;27;20107;-62
2022/04/12 08:15:54;;;;;;;11.80;2.87;;;;;;;6.98;51.96;101770.25;5124052;27;20376;-61
2022/04/12 08:18:19;;;;;;;16.77;2.83;;;;;;;7.05;52.00;101776.75;5126777;27;20280;-63
2022/04/12 08:20:49;;;;;;;13.47;3.33;;;;;;;7.01;51.64;101768.22;5126526;27;20023;-60
2022/04/12 08:23:16;;;;;;;9.30;2.43;;;;;;;7.09;50.94;101772.91;5123350;27;20122;-61
2022/04/12 08:25:42;;;;;;;15.17;2.57;;;;;;;7.21;51.68;101785.22;5124393;27;20172;-61
2022/04/12 08:28:09;;;;;;;10.03;2.93;;;;;;;7.17;50.62;101778.47;5125240;27;20040;-60
2022/04/12 08:30:36;;;;;;;7.10;3.00;;;;;;;7.27;50.17;101776.00;5126162;27;20433;-62
2022/04/12 08:33:02;;;;;;;15.63;2.47;;;;;;;7.35;50.97;101773.59;5126831;27;20447;-62
2022/04/12 08:35:28;;;;;;;9.30;2.37;;;;;;;7.49;49.81;101776.03;5124289;27;20030;-63
2022/04/12 08:37:54;;;;;;;14.47;3.40;;;;;;;7.65;50.48;101783.66;5123881;27;20405;-67
2022/04/12 08:40:19;;;;;;;20.50;3.93;;;;;;;7.75;50.86;101774.00;5125081;27;20038;-65
2022/04/12 08:42:46;;;;;;;10.57;4.00;;;;;;;7.62;48.58;101771.47;5091213;27;20038;-65
2022/04/12 08:45:12;;;;;;;40.77;4.10;;;;;;;7.71;50.64;101785.81;5123827;27;20089;-65
2022/04/12 08:47:39;;;;;;;10.43;2.67;;;;;;;7.81;48.41;101775.38;5121875;27;20067;-64
2022/04/12 08:50:07;;;;;;;17.03;3.17;;;;;;;7.85;49.72;101774.16;5125851;27;20401;-64
2022/04/12 08:52:33;;;;;;;16.23;4.53;;;;;;;7.88;50.22;101780.06;5124660;27;20039;-67
2022/04/12 08:54:59;;;;;;;13.70;3.33;;;;;;;7.96;50.10;101779.44;5125391;27;20494;-71
2022/04/12 08:57:24;;;;;;;12.80;4.13;;;;;;;8.02;50.44;101776.31;5127397;27;20179;-68
2022/04/12 08:59:50;;;;;;;15.17;3.33;;;;;;;8.07;49.43;101774.13;5126528;27;20133;-69
2022/04/12 09:02:16;;;;;;;10.20;3.07;;;;;;;8.03;50.29;101770.88;5123395;27;20045;-68
2022/04/12 09:04:41;;;;;;;11.07;2.77;;;;;;;8.14;49.06;101775.34;5105600;27;20031;-72
2022/04/12 09:07:09;;;;;;;9.20;3.97;;;;;;;8.16;49.77;101792.00;5124768;27;20027;-68
2022/04/12 09:09:37;;;;;;;11.07;2.70;;;;;;;8.10;50.14;101781.88;5125018;27;20027;-70
2022/04/12 09:12:04;;;;;;;14.87;3.10;;;;;;;8.20;49.45;101782.81;5125438;27;20085;-70
2022/04/12 09:14:58;;;;;;;18.23;4.17;;;;;;;8.17;50.23;101787.53;5122104;27;20305;-70
2022/04/12 09:17:37;;;;;;;14.93;3.50;;;;;;;8.15;49.42;101784.16;5126673;27;20482;-68
2022/04/12 09:20:10;;;;;;;18.93;3.67;;;;;;;8.16;49.85;101781.38;5127454;27;20035;-63
2022/04/12 09:22:35;;;;;;;12.57;3.57;;;;;;;8.30;48.65;101788.22;5123865;27;20482;-65
2022/04/12 09:25:05;;;;;;;11.63;2.73;;;;;;;8.33;48.79;101770.28;5126699;27;20038;-65
2022/04/12 09:27:34;;;;;;;12.23;3.43;;;;;;;8.56;48.69;101799.44;5110159;27;20508;-70
2022/04/12 09:30:06;;;;;;;9.70;2.77;;;;;;;8.60;47.39;101787.59;5118714;27;20050;-71
2022/04/12 09:32:37;;;;;;;10.63;2.90;;;;;;;8.54;47.25;101786.28;5110385;27;20111;-69
2022/04/12 09:35:03;;;;;;;10.20;2.33;;;;;;;8.55;47.95;101793.28;5119489;27;20035;-68
2022/04/12 09:37:33;;;;;;;11.63;2.40;;;;;;;8.68;47.84;101796.66;5121920;27;20027;-71
2022/04/12 09:39:58;;;;;;;8.03;2.73;;;;;;;8.86;47.64;101802.25;5121505;27;20114;-72
2022/04/12 09:42:43;;;;;;;11.17;2.90;;;;;;;8.92;46.84;101801.72;5109281;27;20125;-68
2022/04/12 09:45:12;;;;;;;9.63;2.47;;;;;;;8.90;46.45;101798.38;5103406;27;20039;-72
2022/04/12 09:47:37;;;;;;;8.80;2.80;;;;;;;8.97;46.57;101801.38;5109139;27;20066;-72
2022/04/12 09:50:05;;;;;;;6.17;2.20;;;;;;;8.74;46.35;101760.78;5121836;27;20119;-69
2022/04/12 09:52:30;;;;;;;22.77;3.57;;;;;;;8.89;46.73;101802.00;5121561;27;20038;-70
2022/04/12 09:54:56;;;;;;;7.83;2.70;;;;;;;8.81;46.17;101793.81;5119854;27;20389;-71
2022/04/12 09:57:23;;;;;;;6.30;2.40;;;;;;;8.92;45.93;101800.88;5118739;27;20031;-70
2022/04/12 09:59:53;;;;;;;6.90;1.60;;;;;;;8.93;45.07;101798.09;5106185;27;20495;-67
2022/04/12 10:02:18;;;;;;;3.17;1.93;;;;;;;8.99;44.68;101802.09;5121222;27;20038;-65
2022/04/12 10:04:44;;;;;;;5.73;1.93;;;;;;;9.07;44.57;101804.09;5121066;27;20395;-68
2022/04/12 10:07:13;;;;;;;10.40;1.90;;;;;;;9.26;44.28;101804.28;5104945;28;20035;-66
2022/04/12 10:09:40;;;;;;;9.37;2.33;;;;;;;9.38;43.56;101805.88;5112719;28;20114;-67
2022/04/12 10:12:08;;;;;;;9.77;2.03;;;;;;;9.42;43.06;101799.31;5112181;28;20062;-67
2022/04/12 10:14:35;;;;;;;5.90;2.10;;;;;;;9.39;42.39;101801.41;5122758;27;20070;-65
2022/04/12 10:17:02;;;;;;;7.27;2.60;;;;;;;9.15;43.31;101797.19;5124745;27;20042;-67
2022/04/12 10:19:32;;;;;;;9.80;1.73;;;;;;;9.17;42.85;101811.19;5124497;27;20080;-69
2022/04/12 10:21:57;;;;;;;24.37;4.30;;;;;;;9.24;43.55;101807.03;5103595;27;20406;-71
2022/04/12 10:24:24;;;;;;;15.73;3.53;;;;;;;9.28;43.01;101807.63;5124653;27;20031;-70
2022/04/12 10:26:51;;;;;;;21.87;3.53;;;;;;;9.13;42.68;101808.91;5133559;27;20054;-66
2022/04/12 10:29:16;;;;;;;14.53;3.50;;;;;;;8.99;43.51;101808.25;5134006;27;20035;-70
2022/04/12 10:32:00;;;;;;;12.67;2.73;;;;;;;9.19;43.09;101814.53;5133050;27;20130;-69
2022/04/12 10:34:26;;;;;;;5.43;2.43;;;;;;;9.24;42.48;101800.88;5133222;27;20042;-68
2022/04/12 10:36:54;;;;;;;4.53;1.97;;;;;;;9.34;42.24;101812.44;5133332;27;20027;-70
2022/04/12 10:39:32;;;;;;;7.30;1.70;;;;;;;9.30;42.64;101811.84;5133527;27;20030;-69
2022/04/12 10:42:01;;;;;;;6.20;2.23;;;;;;;9.20;42.63;101802.94;5133194;27;20087;-65
2022/04/12 10:44:26;;;;;;;6.00;2.37;;;;;;;9.23;42.75;101797.38;5133404;27;20039;-67
2022/04/12 10:46:52;;;;;;;6.20;1.90;;;;;;;9.27;42.58;101795.31;5114074;27;20389;-67
2022/04/12 10:49:21;;;;;;;8.23;2.53;;;;;;;9.49;41.64;101816.44;5132925;27;20114;-67
2022/04/12 10:52:00;;;;;;;6.87;2.90;;;;;;;9.47;41.31;101813.06;5132874;27;20062;-72
2022/04/12 10:54:31;;;;;;;4.03;2.03;;;;;;;9.46;42.13;101816.69;5133095;27;20035;-69
2022/04/12 10:57:32;;;;;;;3.73;1.90;;;;;;;9.47;41.36;101818.38;5114644;27;20091;-69
2022/04/12 11:00:17;;;;;;;6.47;1.60;;;;;;;9.35;41.60;101824.75;5030148;28;20125;-69
2022/04/12 11:02:53;;;;;;;7.10;2.03;;;;;;;9.35;41.65;101827.41;5125690;27;20541;-73
2022/04/12 11:05:39;;;;;;;3.40;1.57;;;;;;;9.26;41.71;101828.19;5132628;27;20296;-69
2022/04/12 11:08:27;;;;;;;3.53;1.80;;;;;;;9.23;42.32;101831.91;5133212;27;20031;-71
2022/04/12 11:10:54;;;;;;;4.95;1.95;;;;;;;9.32;41.93;101833.00;5132716;27;20027;-63
2022/04/12 11:13:26;;;;;;;4.43;1.60;;;;;;;9.32;41.93;101825.84;5132545;27;20154;-63
2022/04/12 11:15:59;;;;;;;6.30;1.63;;;;;;;9.37;41.77;101837.91;5132504;27;20572;-63
2022/04/12 11:18:53;;;;;;;5.93;2.07;;;;;;;9.30;40.80;101834.94;5132976;28;20047;-63
2022/04/12 11:21:21;;;;;;;7.70;1.57;;;;;;;9.29;41.64;101833.25;5132635;28;20444;-64
2022/04/12 11:23:52;;;;;;;1.85;1.60;;;;;;;9.32;41.21;101846.28;5132557;28;20039;-63
2022/04/12 11:26:51;;;;;;;10.63;2.77;;;;;;;9.30;41.45;101840.25;5132443;28;20038;-62
2022/04/12 11:29:21;;;;;;;11.23;1.43;;;;;;;9.09;41.29;101834.06;5132710;28;20043;-61
2022/04/12 11:31:53;;;;;;;6.57;2.60;;;;;;;9.00;41.17;101831.19;5132617;28;20047;-66
2022/04/12 11:34:20;;;;;;;10.53;1.37;;;;;;;8.91;41.63;101828.44;5132348;28;20042;-63
2022/04/12 11:37:00;;;;;;;4.07;1.70;;;;;;;8.79;42.26;101840.91;5132656;28;20020;-67
2022/04/12 11:39:31;;;;;;;3.43;1.23;;;;;;;8.73;42.08;101840.56;5132388;28;20039;-64